createdAt,value
2023-03-17T00:01:04.086Z,19.86
2023-03-17T00:03:30.559Z,19.75
2023-03-17T00:05:57.019Z,19.70
2023-03-17T00:08:23.472Z,19.66
2023-03-17T00:10:49.922Z,19.55
2023-03-17T00:13:16.380Z,19.58
2023-03-17T00:15:42.902Z,19.61
2023-03-17T00:18:09.358Z,19.58
2023-03-17T00:20:35.834Z,19.70
2023-03-17T00:23:02.308Z,19.69
2023-03-17T00:25:28.774Z,19.65
2023-03-17T00:27:55.264Z,19.65
2023-03-17T00:30:21.717Z,19.65
2023-03-17T00:32:48.189Z,19.71
2023-03-17T00:35:14.696Z,19.67
2023-03-17T00:37:41.150Z,19.54
2023-03-17T00:40:07.633Z,19.68
2023-03-17T00:42:34.091Z,19.66
2023-03-17T00:45:00.555Z,19.72
2023-03-17T00:47:27.024Z,19.74
2023-03-17T00:49:53.464Z,19.56
2023-03-17T00:52:19.915Z,19.64
2023-03-17T00:54:46.365Z,19.55
2023-03-17T00:57:12.828Z,19.51
2023-03-17T00:59:39.286Z,19.52
2023-03-17T05:06:26.296Z,19.37
2023-03-17T05:08:52.753Z,19.44
2023-03-17T05:11:19.210Z,19.45
2023-03-17T05:13:45.651Z,19.25
2023-03-17T05:16:12.145Z,19.27
2023-03-17T05:18:38.674Z,19.33
2023-03-17T05:21:05.151Z,19.34
2023-03-17T05:23:31.618Z,19.32
2023-03-17T05:25:58.075Z,19.33
2023-03-17T05:28:24.525Z,19.25
2023-03-17T05:30:51.041Z,19.27
2023-03-17T05:33:17.538Z,19.39
2023-03-17T05:35:44.060Z,19.28
2023-03-17T05:38:10.583Z,19.31
2023-03-17T05:40:37.047Z,19.34
2023-03-17T05:43:03.515Z,19.37
2023-03-17T05:45:29.963Z,19.34
2023-03-17T05:47:56.427Z,19.37
2023-03-17T05:50:22.952Z,19.38
2023-03-17T05:52:49.414Z,19.42
2023-03-17T05:55:15.932Z,19.37
2023-03-17T05:57:42.424Z,19.37
2023-03-17T06:00:09.100Z,19.36
2023-03-17T06:02:36.243Z,19.38
2023-03-17T06:05:02.705Z,19.26
2023-03-17T06:07:41.022Z,19.33
2023-03-17T06:10:15.180Z,19.31
2023-03-17T06:12:41.642Z,19.31
2023-03-17T06:15:08.102Z,19.33
2023-03-17T06:17:34.566Z,19.28
2023-03-17T06:20:01.017Z,19.32
2023-03-17T06:22:27.480Z,19.43
2023-03-17T06:24:55.483Z,19.32
2023-03-17T06:27:22.599Z,19.37
2023-03-17T06:29:49.058Z,19.41
2023-03-17T06:32:20.673Z,19.36
2023-03-17T06:34:47.472Z,19.29
2023-03-17T06:37:13.959Z,19.40
2023-03-17T06:39:40.390Z,19.42
2023-03-17T06:42:06.850Z,19.31
2023-03-17T06:44:33.306Z,19.32
2023-03-17T06:46:59.784Z,19.27
2023-03-17T06:49:26.259Z,19.31
2023-03-17T06:51:52.712Z,19.26
2023-03-17T06:54:19.164Z,19.23
2023-03-17T06:56:45.620Z,19.34
2023-03-17T06:59:12.079Z,19.27
2023-03-17T07:01:38.585Z,19.29
2023-03-17T07:04:05.087Z,19.18
2023-03-17T07:06:31.531Z,19.14
2023-03-17T07:08:59.372Z,19.15
2023-03-17T07:11:27.413Z,19.19
2023-03-17T07:13:53.866Z,19.12
2023-03-17T07:16:20.333Z,19.23
2023-03-17T07:18:46.818Z,19.26
2023-03-17T07:21:13.286Z,19.24
2023-03-17T07:23:39.759Z,19.45
2023-03-17T07:26:06.226Z,19.32
2023-03-17T07:28:32.683Z,19.34
2023-03-17T07:30:59.162Z,19.32
2023-03-17T07:33:25.638Z,19.38
2023-03-17T07:35:52.136Z,19.30
2023-03-17T07:38:18.621Z,19.35
2023-03-17T07:40:45.173Z,19.27
2023-03-17T07:43:11.619Z,19.24
2023-03-17T07:45:38.133Z,19.25
2023-03-17T07:48:04.662Z,19.30
2023-03-17T07:50:31.159Z,19.33
2023-03-17T07:52:57.651Z,19.33
2023-03-17T07:55:24.098Z,19.31
2023-03-17T07:57:50.631Z,19.30
2023-03-17T08:00:17.233Z,19.28
2023-03-17T08:02:43.771Z,19.26
2023-03-17T08:05:10.519Z,19.29
2023-03-17T08:07:37.064Z,19.33
2023-03-17T08:10:03.573Z,19.31
2023-03-17T08:12:30.018Z,19.37
2023-03-17T08:14:56.454Z,19.30
2023-03-17T08:17:22.921Z,19.40
2023-03-17T08:19:49.396Z,19.46
2023-03-17T08:22:15.915Z,19.48
2023-03-17T08:24:42.366Z,19.60
2023-03-17T08:27:08.905Z,19.47
2023-03-17T08:29:35.375Z,19.38
2023-03-17T08:32:01.880Z,19.48
2023-03-17T08:34:28.338Z,19.50
2023-03-17T08:36:54.788Z,19.48
2023-03-17T08:39:21.236Z,19.50
2023-03-17T08:41:47.668Z,19.50
2023-03-17T08:44:14.120Z,19.47
2023-03-17T08:46:40.552Z,19.61
2023-03-17T08:49:07.004Z,19.56
2023-03-17T08:51:33.476Z,19.72
2023-03-17T08:53:59.921Z,19.55
2023-03-17T08:56:26.426Z,19.54
2023-03-17T08:58:52.927Z,19.57
2023-03-17T09:01:19.408Z,19.59
2023-03-17T09:03:45.895Z,19.59
2023-03-17T09:06:12.506Z,19.61
2023-03-17T09:08:39.004Z,19.59
2023-03-17T09:11:05.513Z,19.57
2023-03-17T09:13:31.990Z,19.51
2023-03-17T09:15:58.533Z,19.53
2023-03-17T09:18:25.011Z,19.60
2023-03-17T09:20:51.475Z,19.53
2023-03-17T09:23:17.935Z,19.59
2023-03-17T09:25:44.435Z,19.53
2023-03-17T09:28:10.899Z,19.54
2023-03-17T09:30:37.361Z,19.54
2023-03-17T09:33:03.850Z,19.59
2023-03-17T09:35:30.363Z,19.59
2023-03-17T09:37:56.995Z,19.63
2023-03-17T09:40:23.478Z,19.62
2023-03-17T09:42:49.965Z,19.63
2023-03-17T09:45:16.434Z,19.61
2023-03-17T09:47:43.076Z,19.60
2023-03-17T09:50:09.577Z,19.60
2023-03-17T09:52:36.041Z,19.61
2023-03-17T09:55:02.472Z,19.65
2023-03-17T09:57:28.967Z,19.59
2023-03-17T09:59:55.423Z,19.60
2023-03-17T10:02:21.877Z,19.63
2023-03-17T10:04:48.383Z,19.65
2023-03-17T10:07:14.883Z,19.66
2023-03-17T10:09:41.463Z,19.67
2023-03-17T10:12:07.932Z,19.72
2023-03-17T10:14:34.387Z,19.74
2023-03-17T10:17:00.852Z,19.70
2023-03-17T10:19:27.320Z,19.68
2023-03-17T10:21:53.788Z,19.66
2023-03-17T10:24:20.228Z,19.66
2023-03-17T10:26:46.703Z,19.66
2023-03-17T10:29:13.169Z,19.69
2023-03-17T10:31:39.769Z,19.67
2023-03-17T10:34:06.279Z,19.73
2023-03-17T10:36:32.751Z,19.72
2023-03-17T10:38:59.255Z,19.69
2023-03-17T10:41:25.715Z,19.74
2023-03-17T10:43:52.171Z,19.68
2023-03-17T10:46:18.654Z,19.69
2023-03-17T10:48:45.187Z,19.70
2023-03-17T10:51:11.684Z,19.74
2023-03-17T10:53:38.144Z,19.66
2023-03-17T10:56:04.600Z,19.70
2023-03-17T10:58:31.070Z,19.72
2023-03-17T11:00:57.637Z,19.75
2023-03-17T11:03:24.165Z,19.71
2023-03-17T11:05:50.627Z,19.61
2023-03-17T11:08:17.079Z,19.74
2023-03-17T11:10:43.550Z,19.71
2023-03-17T11:13:09.992Z,19.90
2023-03-17T11:15:36.451Z,20.04
2023-03-17T11:18:02.907Z,19.92
2023-03-17T11:20:29.612Z,19.66
2023-03-17T11:22:56.204Z,19.72
2023-03-17T11:25:22.654Z,19.87
2023-03-17T11:27:49.116Z,19.93
2023-03-17T11:30:15.606Z,19.92
2023-03-17T11:32:42.165Z,20.14
2023-03-17T11:35:08.702Z,20.20
2023-03-17T11:37:35.162Z,19.88
2023-03-17T11:40:01.607Z,19.98
2023-03-17T11:42:28.098Z,19.94
2023-03-17T11:44:54.559Z,19.96
2023-03-17T11:47:21.002Z,19.81
2023-03-17T11:49:47.466Z,19.88
2023-03-17T11:52:13.945Z,19.90
2023-03-17T11:54:40.390Z,19.84
2023-03-17T11:57:06.844Z,19.84
2023-03-17T11:59:33.311Z,19.92
2023-03-17T12:01:59.761Z,19.82
2023-03-17T12:04:26.258Z,19.92
2023-03-17T12:06:52.772Z,19.87
2023-03-17T12:09:19.211Z,19.87
2023-03-17T12:11:45.672Z,19.93
2023-03-17T12:14:12.118Z,19.90
2023-03-17T12:16:38.575Z,19.92
2023-03-17T12:19:05.114Z,19.98
2023-03-17T12:21:31.558Z,19.88
2023-03-17T12:23:58.020Z,19.90
2023-03-17T12:26:24.478Z,19.93
2023-03-17T12:28:50.950Z,19.98
2023-03-17T12:31:17.428Z,19.93
2023-03-17T12:33:43.924Z,20.02
2023-03-17T12:36:10.426Z,20.00
2023-03-17T12:38:36.914Z,19.95
2023-03-17T12:41:03.375Z,20.10
2023-03-17T12:43:29.873Z,20.09
2023-03-17T12:45:56.352Z,20.19
2023-03-17T12:48:22.823Z,20.17
2023-03-17T12:50:49.292Z,20.11
2023-03-17T12:53:15.749Z,20.13
2023-03-17T12:55:42.299Z,20.11
2023-03-17T12:58:08.778Z,20.21
2023-03-17T13:00:35.243Z,20.21
2023-03-17T13:03:01.733Z,20.12
2023-03-17T13:05:28.318Z,20.14
2023-03-17T13:07:54.815Z,20.08
2023-03-17T13:10:21.291Z,20.12
2023-03-17T13:12:47.754Z,20.13
2023-03-17T13:15:14.199Z,20.15
2023-03-17T13:17:40.678Z,20.20
2023-03-17T13:20:07.149Z,20.22
2023-03-17T13:22:33.630Z,20.13
2023-03-17T13:25:00.115Z,20.15
2023-03-17T13:27:26.565Z,20.20
2023-03-17T13:29:53.016Z,20.19
2023-03-17T13:32:19.476Z,20.26
2023-03-17T13:34:45.948Z,20.34
2023-03-17T13:37:12.416Z,20.30
2023-03-17T13:39:38.883Z,20.28
2023-03-17T13:42:15.679Z,20.32
2023-03-17T13:44:43.840Z,20.29
2023-03-17T13:47:10.307Z,20.30
2023-03-17T13:49:36.940Z,20.31
2023-03-17T13:52:03.451Z,20.28
2023-03-17T13:54:29.931Z,20.26
2023-03-17T13:56:56.405Z,20.30
2023-03-17T13:59:22.916Z,20.25
2023-03-17T14:01:49.384Z,20.28
2023-03-17T14:04:16.018Z,20.35
2023-03-17T14:06:42.497Z,20.37
2023-03-17T14:09:08.943Z,20.31
2023-03-17T14:11:35.395Z,20.30
2023-03-17T14:14:01.857Z,20.30
2023-03-17T14:16:28.359Z,20.33
2023-03-17T14:18:54.892Z,20.25
2023-03-17T14:21:21.370Z,20.31
2023-03-17T14:23:47.821Z,20.33
2023-03-17T14:26:14.275Z,20.29
2023-03-17T14:28:40.742Z,20.27
2023-03-17T14:31:07.214Z,20.32
2023-03-17T14:33:33.678Z,20.32
2023-03-17T14:36:00.189Z,20.31
2023-03-17T14:38:26.663Z,20.37
2023-03-17T14:40:53.140Z,20.36
2023-03-17T14:43:19.637Z,20.44
2023-03-17T14:45:46.135Z,20.38
2023-03-17T14:48:12.619Z,20.35
2023-03-17T14:50:39.077Z,20.39
2023-03-17T14:53:05.596Z,20.38
2023-03-17T14:55:32.350Z,20.43
2023-03-17T14:57:59.139Z,20.41
2023-03-17T15:00:25.618Z,20.47
2023-03-17T15:02:52.059Z,20.41
2023-03-17T15:05:18.516Z,20.39
2023-03-17T15:07:44.978Z,20.46
2023-03-17T15:10:11.450Z,20.48
2023-03-17T15:12:37.902Z,20.48
2023-03-17T15:15:04.381Z,20.48
2023-03-17T15:17:30.845Z,20.45
2023-03-17T15:19:57.302Z,20.38
2023-03-17T15:22:23.748Z,20.42
2023-03-17T15:24:50.201Z,20.43
2023-03-17T15:27:16.657Z,20.37
2023-03-17T15:29:43.130Z,20.33
2023-03-17T15:32:09.603Z,20.33
2023-03-17T15:34:36.094Z,20.32
2023-03-17T15:37:02.600Z,20.35
2023-03-17T15:39:29.041Z,20.35
2023-03-17T15:41:55.502Z,20.34
2023-03-17T15:44:21.963Z,20.37
2023-03-17T15:46:48.422Z,20.32
2023-03-17T15:49:14.910Z,20.36
2023-03-17T15:51:41.385Z,20.42
2023-03-17T15:54:08.960Z,20.36
2023-03-17T15:56:35.441Z,20.37
2023-03-17T15:59:01.909Z,20.43
2023-03-17T16:01:28.567Z,20.35
2023-03-17T16:03:55.112Z,20.37
2023-03-17T16:06:21.590Z,20.33
2023-03-17T16:08:48.048Z,20.38
2023-03-17T16:11:14.514Z,20.33
2023-03-17T16:13:40.975Z,20.28
2023-03-17T16:16:07.449Z,20.29
2023-03-17T16:18:33.936Z,20.32
2023-03-17T16:21:00.439Z,20.28
2023-03-17T16:23:27.033Z,20.31
2023-03-17T16:25:55.447Z,20.31
2023-03-17T16:28:25.761Z,20.29
2023-03-17T16:30:52.279Z,20.33
2023-03-17T16:33:18.788Z,20.25
2023-03-17T16:35:45.298Z,20.28
2023-03-17T16:38:11.782Z,20.27
2023-03-17T16:40:38.248Z,20.34
2023-03-17T16:43:10.342Z,20.33
2023-03-17T16:45:42.236Z,20.33
2023-03-17T16:48:08.705Z,20.26
2023-03-17T16:50:35.155Z,20.31
2023-03-17T16:53:01.637Z,20.30
2023-03-17T16:55:28.079Z,20.29
2023-03-17T16:57:54.551Z,20.26
2023-03-17T17:00:21.005Z,20.24
2023-03-17T17:02:49.596Z,20.26
2023-03-17T17:05:16.245Z,20.25
2023-03-17T17:07:42.698Z,20.22
2023-03-17T17:10:09.166Z,20.20
2023-03-17T17:12:35.636Z,20.20
2023-03-17T17:15:02.110Z,20.24
2023-03-17T17:17:28.558Z,20.27
2023-03-17T17:19:55.013Z,20.25
2023-03-17T17:22:21.463Z,20.24
2023-03-17T17:24:47.942Z,20.23
2023-03-17T17:27:14.398Z,20.17
2023-03-17T17:29:40.853Z,20.21
2023-03-17T17:32:07.291Z,20.20
2023-03-17T17:34:33.754Z,20.22
2023-03-17T17:37:00.221Z,20.23
2023-03-17T17:39:26.694Z,20.20
2023-03-17T17:41:53.158Z,20.16
2023-03-17T17:44:19.629Z,20.16
2023-03-17T17:46:46.163Z,20.16
2023-03-17T17:49:12.664Z,20.15
2023-03-17T17:51:39.125Z,20.15
2023-03-17T17:54:05.589Z,20.15
2023-03-17T17:56:32.032Z,20.17
2023-03-17T17:58:58.518Z,20.21
2023-03-17T18:01:24.988Z,20.19
2023-03-17T18:03:51.450Z,20.10
2023-03-17T18:06:17.941Z,20.16
2023-03-17T18:08:44.417Z,20.12
2023-03-17T18:11:10.862Z,20.08
2023-03-17T18:13:37.345Z,20.20
2023-03-17T18:16:03.871Z,20.10
2023-03-17T18:18:30.415Z,20.11
2023-03-17T18:20:56.887Z,20.11
2023-03-17T18:23:23.357Z,20.13
2023-03-17T18:25:49.844Z,20.10
2023-03-17T18:28:16.308Z,20.11
2023-03-17T18:30:42.754Z,20.11
2023-03-17T18:33:09.325Z,20.10
2023-03-17T18:35:35.880Z,20.04
2023-03-17T18:38:02.340Z,20.10
2023-03-17T18:40:28.811Z,20.13
2023-03-17T18:42:55.255Z,20.20
2023-03-17T18:45:21.718Z,20.10
2023-03-17T18:47:48.198Z,20.45
2023-03-17T18:50:14.671Z,20.22
2023-03-17T18:52:41.166Z,20.12
2023-03-17T18:55:07.655Z,20.11
2023-03-17T18:57:34.185Z,20.10
2023-03-17T19:00:00.649Z,20.12
2023-03-17T19:02:27.128Z,20.16
2023-03-17T19:04:53.584Z,20.05
2023-03-17T19:07:20.028Z,20.07
2023-03-17T19:09:46.491Z,20.07
2023-03-17T19:12:12.947Z,20.04
2023-03-17T19:14:39.454Z,20.08
2023-03-17T19:17:05.928Z,20.02
2023-03-17T19:19:32.458Z,20.05
2023-03-17T19:21:58.916Z,20.10
2023-03-17T19:24:25.368Z,20.07
2023-03-17T19:26:51.855Z,20.05
2023-03-17T19:29:18.338Z,20.06
2023-03-17T19:31:45.739Z,20.04
2023-03-17T19:34:13.828Z,20.03
2023-03-17T19:36:40.295Z,20.04
2023-03-17T19:39:06.801Z,20.04
2023-03-17T19:41:33.293Z,20.08
2023-03-17T19:43:59.751Z,20.03
2023-03-17T19:46:26.243Z,20.05
2023-03-17T19:48:52.703Z,20.06
2023-03-17T19:51:19.173Z,20.03
2023-03-17T19:53:45.671Z,20.06
2023-03-17T19:56:12.129Z,20.03
2023-03-17T19:58:38.588Z,20.03
2023-03-17T20:01:05.117Z,20.00
2023-03-17T20:03:31.669Z,20.07
2023-03-17T20:05:58.154Z,20.01
2023-03-17T20:08:24.623Z,20.00
2023-03-17T20:10:51.084Z,20.01
2023-03-17T20:13:17.570Z,19.97
2023-03-17T20:15:44.086Z,20.02
2023-03-17T20:18:10.569Z,19.98
2023-03-17T20:20:37.036Z,19.99
2023-03-17T20:23:03.498Z,20.03
2023-03-17T20:25:29.954Z,20.06
2023-03-17T20:27:56.412Z,20.05
2023-03-17T20:30:22.932Z,20.03
2023-03-17T20:32:49.474Z,20.01
2023-03-17T20:35:15.961Z,20.01
2023-03-17T20:37:42.482Z,20.03
2023-03-17T20:40:08.966Z,20.00
2023-03-17T20:42:35.447Z,19.99
2023-03-17T20:45:01.919Z,19.96
2023-03-17T20:47:28.409Z,20.00
2023-03-17T20:49:54.881Z,19.97
2023-03-17T20:52:21.373Z,20.08
2023-03-17T20:54:47.827Z,20.13
2023-03-17T20:57:14.295Z,20.04
2023-03-17T20:59:40.756Z,19.98
2023-03-17T21:02:07.312Z,19.92
2023-03-17T21:04:33.818Z,20.00
2023-03-17T21:07:00.313Z,19.98
2023-03-17T21:09:26.778Z,20.01
2023-03-17T21:11:53.247Z,19.98
2023-03-17T21:14:19.710Z,19.95
2023-03-17T21:16:46.190Z,19.96
2023-03-17T21:19:12.675Z,19.96
2023-03-17T21:21:39.144Z,19.91
2023-03-17T21:24:05.809Z,19.92
2023-03-17T21:26:32.296Z,19.94
2023-03-17T21:28:58.774Z,19.93
2023-03-17T21:31:25.266Z,19.99
2023-03-17T21:33:51.762Z,20.03
2023-03-17T21:36:18.227Z,19.99
2023-03-17T21:38:44.703Z,19.95
2023-03-17T21:41:11.180Z,19.94
2023-03-17T21:43:37.791Z,19.92
2023-03-17T21:46:04.326Z,19.90
2023-03-17T21:48:30.855Z,19.91
2023-03-17T21:50:57.314Z,19.95
2023-03-17T21:53:23.772Z,19.98
2023-03-17T21:55:50.236Z,19.92
2023-03-17T21:58:16.713Z,19.91
2023-03-17T22:00:45.941Z,19.84
2023-03-17T22:03:12.785Z,19.91
2023-03-17T22:05:39.260Z,19.93
2023-03-17T22:08:05.738Z,19.90
2023-03-17T22:10:32.400Z,19.95
2023-03-17T22:12:59.048Z,19.98
2023-03-17T22:15:25.543Z,19.88
2023-03-17T22:17:52.017Z,19.90
2023-03-17T22:20:18.486Z,19.88
2023-03-17T22:22:44.969Z,19.89
2023-03-17T22:25:11.445Z,19.90
2023-03-17T22:27:37.911Z,19.92
2023-03-17T22:30:04.375Z,19.91
2023-03-17T22:32:30.917Z,19.95
2023-03-17T22:34:57.399Z,19.93
2023-03-17T22:37:23.860Z,19.87
2023-03-17T22:39:50.325Z,19.83
2023-03-17T22:42:16.798Z,19.89
2023-03-17T22:44:43.267Z,19.85
2023-03-17T22:47:09.743Z,19.85
2023-03-17T22:49:36.209Z,19.87
2023-03-17T22:52:02.672Z,19.84
2023-03-17T22:54:29.145Z,19.85
2023-03-17T22:56:55.646Z,19.83
2023-03-17T22:59:22.139Z,19.84
2023-03-17T23:01:48.603Z,19.82
2023-03-17T23:04:15.115Z,19.85
2023-03-17T23:06:41.654Z,19.82
2023-03-17T23:09:08.149Z,19.89
2023-03-17T23:11:34.626Z,19.80
2023-03-17T23:14:01.082Z,19.88
2023-03-17T23:16:27.598Z,19.83
2023-03-17T23:18:54.085Z,19.77
2023-03-17T23:21:20.549Z,19.88
2023-03-17T23:23:47.018Z,19.81
2023-03-17T23:26:13.482Z,19.80
2023-03-17T23:28:39.946Z,19.83
2023-03-17T23:31:06.498Z,19.76
2023-03-17T23:33:33.005Z,19.74
2023-03-17T23:35:59.481Z,19.73
2023-03-17T23:38:25.993Z,19.81
2023-03-17T23:40:52.439Z,19.81
2023-03-17T23:43:18.932Z,19.82
2023-03-17T23:45:45.496Z,19.82
2023-03-17T23:48:12.041Z,19.82
2023-03-17T23:50:38.511Z,19.81
2023-03-17T23:53:04.970Z,19.73
2023-03-17T23:55:31.415Z,19.81
2023-03-17T23:57:57.872Z,19.77
